Time;durP1;ratioP1;P1;durP2;ratioP2;P2;SDS_P1;SDS_P2;PMS_P1;PMS_P2;Temp;Humidity;BMP_temperature;BMP_pressure;BME280_temperature;BME280_humidity;BME280_pressure;Samples;Min_cycle;Max_cycle;Signal;HPM_P1;HPM_P2
2021/04/12 00:02:04;;;;;;;31.17;14.77;;;;;;;5.70;40.65;101352.52;126289;1099;104160;-77
2021/04/12 00:04:38;;;;;;;30.63;14.83;;;;;;;5.67;39.98;101343.56;126290;1099;104166;-77
2021/04/12 00:07:17;;;;;;;30.50;14.30;;;;;;;5.63;40.15;101338.97;126288;1099;104137;-77
2021/04/12 00:09:52;;;;;;;30.87;14.97;;;;;;;5.58;40.03;101336.94;126241;1099;104297;-78
2021/04/12 00:12:30;;;;;;;29.67;14.87;;;;;;;5.55;40.12;101334.13;126307;1099;104205;-78
2021/04/12 00:15:06;;;;;;;31.73;15.43;;;;;;;5.51;40.27;101339.01;125302;1099;104242;-78
2021/04/12 00:17:41;;;;;;;33.47;15.00;;;;;;;5.47;40.58;101323.96;126274;1099;104149;-77
2021/04/12 00:20:21;;;;;;;27.33;14.03;;;;;;;5.43;40.84;101324.56;126101;1099;104201;-78
2021/04/12 00:23:04;;;;;;;34.23;15.50;;;;;;;5.39;40.51;101313.02;126268;1099;104229;-78
2021/04/12 00:25:40;;;;;;;32.93;14.47;;;;;;;5.34;41.17;101314.41;126311;1099;104152;-78
2021/04/12 00:28:15;;;;;;;34.13;15.33;;;;;;;5.27;40.63;101305.28;126308;1099;104139;-78
2021/04/12 00:30:49;;;;;;;31.33;16.63;;;;;;;5.21;40.92;101307.45;126036;1099;104579;-78
2021/04/12 00:33:20;;;;;;;;;;;;;;;5.14;41.93;101305.20;126299;1098;104188;-77
2021/04/12 00:35:59;;;;;;;28.53;14.97;;;;;;;5.08;41.49;101310.89;126279;1099;104322;-78
2021/04/12 00:38:36;;;;;;;31.90;15.23;;;;;;;5.02;41.39;101305.26;126348;1099;104137;-77
2021/04/12 00:41:17;;;;;;;30.07;14.40;;;;;;;5.01;41.31;101309.53;126321;1099;110455;-77
2021/04/12 00:44:07;;;;;;;32.93;14.53;;;;;;;5.01;41.27;101308.64;126333;1099;104149;-78
2021/04/12 00:46:56;;;;;;;31.33;13.27;;;;;;;4.99;42.23;101305.94;126301;1099;104316;-78
2021/04/12 00:49:40;;;;;;;31.33;14.07;;;;;;;4.96;42.38;101302.22;125289;1099;104331;-77
2021/04/12 00:52:42;;;;;;;35.63;13.40;;;;;;;4.94;42.01;101303.78;126307;1099;104159;-77
2021/04/12 00:55:24;;;;;;;27.90;14.10;;;;;;;4.93;42.27;101294.20;126266;1099;104159;-77
2021/04/12 00:58:01;;;;;;;32.33;13.57;;;;;;;4.92;42.03;101294.98;126280;1099;104149;-78
2021/04/12 01:00:36;;;;;;;28.43;13.17;;;;;;;4.89;42.04;101308.66;126258;1099;104280;-78
2021/04/12 01:03:30;;;;;;;27.37;13.13;;;;;;;4.89;42.32;101303.45;126296;1099;104146;-77
2021/04/12 01:06:11;;;;;;;28.20;12.67;;;;;;;4.83;42.67;101295.22;126285;1099;104155;-77
2021/04/12 01:09:02;;;;;;;28.00;12.17;;;;;;;4.78;42.70;101288.80;126292;1099;104191;-77
2021/04/12 01:11:53;;;;;;;31.57;13.63;;;;;;;4.70;42.28;101293.45;126269;1099;104155;-78
2021/04/12 01:14:44;;;;;;;29.03;13.07;;;;;;;4.62;42.81;101295.49;126305;1099;104153;-77
2021/04/12 01:17:31;;;;;;;29.93;12.70;;;;;;;4.55;43.27;101289.73;126231;1099;104264;-78
2021/04/12 01:23:45;;;;;;;28.53;12.30;;;;;;;4.43;42.95;101288.06;125227;1102;104147;-78
2021/04/12 01:26:43;;;;;;;27.83;12.00;;;;;;;4.34;43.05;101281.30;125211;1102;104280;-78
2021/04/12 01:29:45;;;;;;;28.57;12.50;;;;;;;4.28;43.24;101286.94;125023;1102;104169;-78
2021/04/12 01:32:35;;;;;;;25.50;12.33;;;;;;;4.26;43.85;101283.33;125109;1102;104688;-79
2021/04/12 01:35:30;;;;;;;29.57;11.87;;;;;;;4.27;43.76;101277.32;125077;1102;104284;-77
2021/04/12 01:38:08;;;;;;;25.80;11.93;;;;;;;4.31;43.34;101276.77;124897;1102;104332;-78
2021/04/12 01:40:58;;;;;;;25.77;11.60;;;;;;;4.31;44.35;101269.87;125059;1102;104274;-78
2021/04/12 01:43:34;;;;;;;23.67;11.10;;;;;;;4.33;43.22;101262.19;124884;1102;102756;-78
2021/04/12 01:46:11;;;;;;;24.70;11.20;;;;;;;4.33;44.01;101262.19;124947;1105;104261;-79
2021/04/12 01:48:52;;;;;;;26.33;11.00;;;;;;;4.35;43.85;101257.09;125146;1102;104187;-78
2021/04/12 01:51:40;;;;;;;27.77;12.57;;;;;;;4.29;43.59;101261.06;125138;1102;104162;-79
2021/04/12 01:54:36;;;;;;;26.83;11.63;;;;;;;4.27;43.94;101264.33;125126;1102;104149;-78
2021/04/12 01:57:26;;;;;;;22.50;10.67;;;;;;;4.28;44.24;101260.95;125007;1102;104208;-79
2021/04/12 02:00:15;;;;;;;29.00;11.87;;;;;;;4.29;44.47;101261.06;125193;1102;104300;-80
2021/04/12 02:02:59;;;;;;;27.10;11.70;;;;;;;4.31;43.70;101258.58;125111;1102;104211;-78
2021/04/12 02:05:39;;;;;;;24.40;11.20;;;;;;;4.28;44.19;101258.36;125216;1102;104162;-78
2021/04/12 02:08:19;;;;;;;24.40;11.03;;;;;;;4.25;44.92;101253.83;124978;1102;104205;-78
2021/04/12 02:11:05;;;;;;;22.77;11.07;;;;;;;4.23;44.84;101246.73;125172;1102;104185;-78
2021/04/12 02:14:00;;;;;;;24.17;9.93;;;;;;;4.20;44.64;101247.41;125145;1102;104347;-78
2021/04/12 02:16:40;;;;;;;22.10;10.48;;;;;;;4.19;44.44;101248.22;124953;1102;104210;-78
2021/04/12 02:19:28;;;;;;;26.80;10.40;;;;;;;4.17;44.01;101243.69;125183;1102;104146;-78
2021/04/12 02:22:16;;;;;;;23.70;10.47;;;;;;;4.16;44.19;101235.00;125189;1102;104139;-77
2021/04/12 02:24:52;;;;;;;24.77;10.63;;;;;;;4.11;44.46;101236.34;124956;1102;104280;-78
2021/04/12 02:27:27;;;;;;;24.93;10.70;;;;;;;4.06;44.77;101237.70;124998;1102;104589;-77
2021/04/12 02:30:03;;;;;;;26.47;10.83;;;;;;;3.99;44.19;101236.36;124862;1102;104166;-78
2021/04/12 02:32:55;;;;;;;24.73;11.57;;;;;;;3.93;44.75;101239.39;125129;1102;104156;-78
2021/04/12 02:35:38;;;;;;;26.00;10.23;;;;;;;3.84;44.91;101236.11;125049;1102;104208;-79
2021/04/12 02:38:25;;;;;;;24.60;11.53;;;;;;;3.79;45.22;101234.88;125108;1102;104147;-78
2021/04/12 02:41:24;;;;;;;26.03;11.50;;;;;;;3.70;45.06;101224.70;125014;1102;104153;-79
2021/04/12 02:44:11;;;;;;;24.87;11.07;;;;;;;3.66;45.38;101239.92;125071;1102;104329;-79
2021/04/12 02:47:05;;;;;;;24.60;10.90;;;;;;;3.63;45.60;101244.88;124996;1102;104146;-79
2021/04/12 02:49:44;;;;;;;23.47;10.80;;;;;;;3.58;45.75;101242.87;125038;1102;104200;-79
2021/04/12 02:52:27;;;;;;;25.70;11.13;;;;;;;3.53;45.60;101233.80;125003;1102;104174;-78
2021/04/12 02:55:22;;;;;;;26.97;11.50;;;;;;;3.47;45.29;101222.07;125102;1102;104268;-77
2021/04/12 02:58:09;;;;;;;24.20;10.63;;;;;;;3.43;45.47;101223.55;125130;1102;104264;-78
2021/04/12 03:01:02;;;;;;;25.57;10.70;;;;;;;3.42;45.91;101230.39;125128;1102;104162;-78
2021/04/12 03:03:46;;;;;;;29.70;12.03;;;;;;;3.41;46.06;101230.28;125140;1102;104159;-79
2021/04/12 03:06:43;;;;;;;25.70;12.10;;;;;;;3.38;46.09;101236.16;125121;1102;104153;-79
2021/04/12 03:09:35;;;;;;;25.40;11.20;;;;;;;3.38;45.69;101230.05;125190;1101;104150;-78
2021/04/12 03:12:29;;;;;;;29.00;12.50;;;;;;;3.34;45.65;101231.52;124953;1102;104144;-78
2021/04/12 03:15:19;;;;;;;26.17;12.47;;;;;;;3.35;46.54;101235.92;125132;1102;104171;-78
2021/04/12 03:18:03;;;;;;;26.07;10.00;;;;;;;3.34;46.38;101233.22;125177;1102;104172;-77
2021/04/12 03:21:03;;;;;;;26.27;11.60;;;;;;;3.29;46.97;101235.45;125160;1102;104274;-77
2021/04/12 03:23:43;;;;;;;25.53;10.80;;;;;;;3.27;46.83;101233.52;125001;1102;104692;-78
2021/04/12 03:26:26;;;;;;;22.93;9.97;;;;;;;3.25;46.87;101230.81;125033;1102;104294;-77
2021/04/12 03:29:09;;;;;;;22.73;9.97;;;;;;;3.23;47.66;101232.39;124992;1102;104386;-78
2021/04/12 03:32:07;;;;;;;26.33;10.87;;;;;;;3.23;47.16;101232.39;124978;1102;104172;-77
2021/04/12 03:34:40;;;;;;;22.67;10.17;;;;;;;3.23;46.63;101230.69;124966;1102;104229;-78
2021/04/12 03:37:35;;;;;;;23.60;9.70;;;;;;;3.25;46.94;101225.62;125144;1102;118954;-78
2021/04/12 03:40:18;;;;;;;25.37;10.30;;;;;;;3.27;46.96;101229.23;125064;1102;104149;-79
2021/04/12 03:43:10;;;;;;;25.27;10.23;;;;;;;3.29;46.94;101225.08;125098;1102;104207;-79
2021/04/12 03:46:07;;;;;;;25.00;10.50;;;;;;;3.29;47.72;101217.30;125187;1102;104172;-79
2021/04/12 03:48:51;;;;;;;23.50;10.23;;;;;;;3.31;47.06;101220.01;124994;1105;104168;-78
2021/04/12 03:51:46;;;;;;;21.27;9.63;;;;;;;3.29;47.79;101218.97;124967;1102;104343;-79
2021/04/12 03:54:25;;;;;;;;;;;;;;;3.29;47.79;101229.34;124923;1102;104261;-79
2021/04/12 03:57:08;;;;;;;23.67;10.13;;;;;;;3.28;47.29;101222.37;124965;1102;104146;-79
2021/04/12 03:59:54;;;;;;;26.33;10.80;;;;;;;3.29;47.13;101234.53;125056;1102;104243;-79
2021/04/12 04:02:37;;;;;;;24.50;10.70;;;;;;;3.29;47.57;101235.45;125097;1102;104162;-79
2021/04/12 04:05:35;;;;;;;29.20;10.87;;;;;;;3.30;47.76;101236.34;125375;1099;104155;-79
2021/04/12 04:08:25;;;;;;;23.43;9.67;;;;;;;3.32;47.83;101229.58;125125;1099;108180;-76
2021/04/12 04:11:18;;;;;;;20.70;8.60;;;;;;;3.32;47.93;101229.58;125411;1099;104169;-77
2021/04/12 04:14:11;;;;;;;22.33;9.43;;;;;;;3.34;47.79;101230.63;125425;1099;104140;-77
2021/04/12 04:16:55;;;;;;;19.83;9.13;;;;;;;3.34;48.44;101231.52;125622;1099;104149;-77
2021/04/12 04:19:48;;;;;;;27.70;9.93;;;;;;;3.39;47.62;101224.08;126313;1099;104159;-79
2021/04/12 04:22:35;;;;;;;24.87;10.10;;;;;;;3.43;48.24;101226.13;125136;1099;104296;-78
2021/04/12 04:25:32;;;;;;;23.93;9.93;;;;;;;3.50;48.01;101220.59;125373;1099;104168;-78
2021/04/12 04:28:31;;;;;;;29.20;10.97;;;;;;;3.56;48.28;101231.44;125043;1099;104181;-78
2021/04/12 04:31:27;;;;;;;23.17;10.20;;;;;;;3.59;47.76;101223.89;125187;1102;104270;-78
2021/04/12 04:34:11;;;;;;;27.23;10.33;;;;;;;3.67;48.62;101224.47;125103;1099;104275;-79
2021/04/12 04:37:00;;;;;;;31.27;11.20;;;;;;;3.76;48.57;101221.67;124979;1099;104066;-79
2021/04/12 04:39:50;;;;;;;26.97;10.90;;;;;;;3.81;48.30;101228.09;125143;1099;104233;-79
2021/04/12 04:42:46;;;;;;;27.60;10.60;;;;;;;3.83;48.33;101230.80;125157;1099;104269;-78
2021/04/12 04:45:26;;;;;;;26.60;10.70;;;;;;;3.86;47.98;101231.03;125053;1099;104153;-79
2021/04/12 04:48:27;;;;;;;23.37;9.70;;;;;;;3.87;48.07;101225.06;124972;1102;104149;-78
2021/04/12 04:51:16;;;;;;;26.80;10.30;;;;;;;3.89;47.59;101226.96;125037;1099;105497;-79
2021/04/12 04:54:05;;;;;;;25.23;10.07;;;;;;;3.93;48.66;101228.11;124997;1099;104188;-79
2021/04/12 04:56:40;;;;;;;28.37;10.73;;;;;;;3.96;48.63;101225.74;125092;1101;104172;-78
2021/04/12 04:59:39;;;;;;;24.50;10.03;;;;;;;3.98;48.48;101231.94;125020;1099;106627;-79
2021/04/12 05:02:36;;;;;;;23.53;9.00;;;;;;;4.04;48.07;101227.20;124980;1102;104444;-78
2021/04/12 05:05:21;;;;;;;23.70;9.40;;;;;;;4.11;48.17;101216.48;125021;1099;104159;-78
2021/04/12 05:08:16;;;;;;;24.27;9.60;;;;;;;4.27;48.63;101209.77;125030;1102;104137;-78
2021/04/12 05:11:12;;;;;;;21.80;9.07;;;;;;;4.39;49.10;101214.96;124979;1099;104347;-78
2021/04/12 05:14:12;;;;;;;22.30;9.67;;;;;;;4.49;48.80;101213.14;124971;1102;104213;-78
2021/04/12 05:16:57;;;;;;;25.63;9.43;;;;;;;4.59;48.73;101199.09;125075;1099;104299;-78
2021/04/12 05:19:45;;;;;;;27.93;10.90;;;;;;;4.69;48.64;101208.47;125014;1099;104168;-78
2021/04/12 05:22:36;;;;;;;26.60;10.37;;;;;;;4.74;48.80;101209.68;125086;1099;104175;-78
2021/04/12 05:25:20;;;;;;;26.57;9.43;;;;;;;4.81;48.46;101208.41;125087;1099;104141;-78
2021/04/12 05:28:15;;;;;;;24.12;9.50;;;;;;;4.90;48.91;101187.35;125061;1099;104477;-78
2021/04/12 05:31:05;;;;;;;25.63;9.50;;;;;;;5.03;48.61;101193.52;125006;1099;104216;-78
2021/04/12 05:34:03;;;;;;;44.97;11.77;;;;;;;5.17;48.49;101190.94;124952;1099;104178;-77
2021/04/12 05:36:55;;;;;;;24.63;9.70;;;;;;;5.32;48.77;101185.89;125069;1099;104174;-79
2021/04/12 05:39:45;;;;;;;22.47;9.10;;;;;;;5.48;48.48;101188.70;125166;1099;105518;-78
2021/04/12 05:42:26;;;;;;;22.17;9.10;;;;;;;5.64;48.63;101193.27;125332;1099;104169;-78
2021/04/12 05:45:13;;;;;;;;;;;;;;;5.80;48.90;101187.36;125372;1099;104149;-78
2021/04/12 05:48:17;;;;;;;31.57;9.80;;;;;;;5.94;48.64;101181.34;124961;1099;104185;-78
2021/04/12 05:51:02;;;;;;;24.00;9.40;;;;;;;6.14;48.53;101183.45;124922;1099;104161;-78
2021/04/12 05:53:53;;;;;;;21.57;9.13;;;;;;;6.28;48.63;101174.84;124990;1103;104241;-78
2021/04/12 05:56:44;;;;;;;26.17;10.00;;;;;;;6.46;48.61;101178.59;124993;1099;104185;-78
2021/04/12 05:59:24;;;;;;;22.63;10.27;;;;;;;6.62;48.30;101179.55;124998;1102;104737;-80
2021/04/12 06:02:21;;;;;;;25.35;9.85;;;;;;;6.78;48.51;101178.82;124985;1099;104171;-79
2021/04/12 06:05:05;;;;;;;23.60;10.30;;;;;;;6.95;48.33;101182.44;124965;1099;104894;-78
2021/04/12 06:08:04;;;;;;;24.87;9.38;;;;;;;7.10;48.55;101183.38;125005;1102;104201;-80
2021/04/12 06:10:53;;;;;;;24.27;9.43;;;;;;;7.29;48.37;101189.70;124978;1100;104206;-80
2021/04/12 06:13:50;;;;;;;26.90;9.70;;;;;;;7.49;48.31;101185.67;124953;1099;103037;-79
2021/04/12 06:16:49;;;;;;;24.63;10.17;;;;;;;7.68;48.40;101177.19;124932;1102;104329;-79
2021/04/12 06:19:44;;;;;;;21.13;8.80;;;;;;;7.87;48.02;101179.19;125004;1098;104204;-79
2021/04/12 06:22:37;;;;;;;20.87;8.90;;;;;;;8.06;48.02;101178.51;125429;1099;104306;-80
2021/04/12 06:25:21;;;;;;;;;;;;;;;8.26;47.52;101175.30;125026;1099;104229;-79
2021/04/12 06:28:21;;;;;;;21.83;8.10;;;;;;;8.46;47.95;101172.90;125052;1102;104287;-79
2021/04/12 06:31:23;;;;;;;18.57;7.53;;;;;;;8.71;47.97;101175.16;125678;1099;104171;-79
2021/04/12 06:34:03;;;;;;;22.60;8.30;;;;;;;8.92;47.83;101172.77;125205;1099;104214;-79
2021/04/12 06:36:47;;;;;;;19.27;7.90;;;;;;;9.11;47.18;101176.36;126071;1099;104178;-79
2021/04/12 06:39:33;;;;;;;20.52;8.18;;;;;;;9.37;47.00;101179.45;125190;1099;104280;-79
2021/04/12 06:42:27;;;;;;;22.73;8.60;;;;;;;9.67;46.85;101175.73;125425;1099;118508;-77
2021/04/12 06:45:21;;;;;;;22.45;9.28;;;;;;;9.95;47.37;101187.59;125501;1099;104175;-79
2021/04/12 06:48:17;;;;;;;20.63;8.97;;;;;;;10.22;47.03;101181.89;125073;1100;104230;-78
2021/04/12 06:51:16;;;;;;;21.53;8.87;;;;;;;10.53;46.70;101180.75;125023;1099;104031;-78
2021/04/12 06:54:13;;;;;;;24.73;8.80;;;;;;;10.78;46.32;101181.08;125615;1099;104242;-79
2021/04/12 06:57:11;;;;;;;22.70;8.30;;;;;;;10.98;46.23;101178.44;125217;1099;104216;-79
2021/04/12 07:00:06;;;;;;;19.93;7.77;;;;;;;11.24;46.28;101181.34;124936;1099;104178;-78
2021/04/12 07:03:01;;;;;;;20.07;7.87;;;;;;;11.56;45.66;101173.92;125195;1099;104200;-80
2021/04/12 07:05:57;;;;;;;22.10;8.50;;;;;;;11.79;45.39;101167.89;125278;1099;104136;-78
2021/04/12 07:08:42;;;;;;;19.03;9.47;;;;;;;12.04;45.41;101163.67;125332;1099;104278;-79
2021/04/12 07:11:45;;;;;;;23.93;8.40;;;;;;;12.26;45.24;101178.58;125410;1099;102079;-79
2021/04/12 07:14:59;;;;;;;20.40;8.10;;;;;;;12.58;44.80;101173.69;125214;1099;104290;-79
2021/04/12 07:17:53;;;;;;;21.03;8.57;;;;;;;12.85;44.84;101165.02;125689;1099;104163;-79
2021/04/12 07:20:48;;;;;;;20.00;8.57;;;;;;;12.99;44.67;101165.53;125323;1098;104204;-80
2021/04/12 07:23:46;;;;;;;24.53;9.13;;;;;;;13.14;44.85;101166.09;125093;1098;106563;-79
2021/04/12 07:26:41;;;;;;;23.40;8.60;;;;;;;13.30;43.80;101151.71;125030;1099;104309;-79
2021/04/12 07:32:49;;;;;;;27.45;10.93;;;;;;;13.71;43.53;101144.34;125076;1102;104248;-78
2021/04/12 07:35:33;;;;;;;29.00;10.10;;;;;;;13.89;43.87;101144.05;124821;1105;104178;-79
2021/04/12 07:38:35;;;;;;;23.98;10.70;;;;;;;14.11;43.83;101135.08;124855;1102;104242;-80
2021/04/12 07:41:40;;;;;;;31.10;10.63;;;;;;;14.34;44.04;101135.79;124811;1102;104458;-78
2021/04/12 07:44:36;;;;;;;24.23;10.43;;;;;;;14.55;42.63;101131.99;124743;1102;108537;-76
2021/04/12 07:47:31;;;;;;;21.37;8.80;;;;;;;14.64;42.52;101129.66;124748;1102;104223;-79
2021/04/12 07:50:28;;;;;;;27.83;9.30;;;;;;;14.77;42.67;101124.73;124732;1102;104200;-79
2021/04/12 07:53:22;;;;;;;26.90;9.67;;;;;;;15.03;43.10;101121.06;124749;1105;104377;-78
2021/04/12 07:56:39;;;;;;;21.07;9.53;;;;;;;15.22;42.51;101111.91;124976;1102;104284;-79
2021/04/12 07:59:45;;;;;;;23.43;9.80;;;;;;;15.35;42.23;101107.83;124817;1102;104680;-78
2021/04/12 08:02:45;;;;;;;20.17;8.30;;;;;;;15.49;42.37;101109.91;125867;1099;104162;-78
2021/04/12 08:05:41;;;;;;;21.53;9.50;;;;;;;15.69;41.33;101098.09;125198;1099;104140;-78
2021/04/12 08:08:29;;;;;;;23.97;10.17;;;;;;;15.85;41.37;101093.17;125838;1099;104156;-78
2021/04/12 08:11:21;;;;;;;23.93;9.63;;;;;;;15.92;40.05;101092.47;125174;1099;104230;-78
2021/04/12 08:14:25;;;;;;;24.00;11.10;;;;;;;15.86;39.95;101081.74;125397;1099;104338;-78
2021/04/12 08:17:21;;;;;;;20.53;9.93;;;;;;;16.03;39.19;101082.13;125825;1099;104198;-78
2021/04/12 08:20:27;;;;;;;22.50;10.10;;;;;;;16.20;38.92;101085.16;125921;1099;104268;-79
2021/04/12 08:23:36;;;;;;;19.57;10.20;;;;;;;16.28;38.74;101072.97;125762;1099;104150;-79
2021/04/12 08:26:33;;;;;;;20.47;9.57;;;;;;;16.41;38.38;101072.38;125245;1099;104214;-79
2021/04/12 08:29:30;;;;;;;19.37;9.43;;;;;;;16.50;38.03;101067.28;125057;1102;105720;-80
2021/04/12 08:32:12;;;;;;;;;;;;;;;16.59;37.41;101057.72;125166;1102;104421;-79
2021/04/12 08:35:11;;;;;;;22.30;9.90;;;;;;;16.69;37.76;101054.41;125068;1102;104255;-78
2021/04/12 08:38:06;;;;;;;20.73;9.67;;;;;;;16.82;36.78;101059.05;125006;1102;104242;-81
2021/04/12 08:41:03;;;;;;;21.50;9.00;;;;;;;16.87;36.50;101060.06;124921;1102;104290;-81
2021/04/12 08:43:56;;;;;;;21.43;9.20;;;;;;;16.89;36.44;101058.35;124921;1102;104233;-82
2021/04/12 08:46:53;;;;;;;19.73;9.40;;;;;;;16.88;35.02;101045.95;124957;1102;104173;-79
2021/04/12 08:49:56;;;;;;;18.00;8.77;;;;;;;16.85;35.51;101039.67;124969;1102;104334;-80
2021/04/12 08:52:51;;;;;;;18.17;8.37;;;;;;;16.83;35.25;101047.59;125061;1102;104233;-81
2021/04/12 08:55:40;;;;;;;18.53;8.97;;;;;;;16.84;35.00;101044.09;124953;1102;104315;-79
2021/04/12 08:58:39;;;;;;;17.87;9.00;;;;;;;16.79;35.02;101032.49;125112;1102;104229;-79
2021/04/12 09:01:36;;;;;;;19.43;8.03;;;;;;;16.89;35.20;101029.20;125787;1099;104155;-78
2021/04/12 09:04:36;;;;;;;20.53;8.93;;;;;;;16.93;33.99;101026.60;125866;1099;104281;-77
2021/04/12 09:07:31;;;;;;;18.30;9.60;;;;;;;16.95;34.27;101017.79;125276;1099;105763;-78
2021/04/12 09:10:23;;;;;;;15.73;7.53;;;;;;;17.11;34.13;101020.71;125250;1099;104204;-79
2021/04/12 09:13:26;;;;;;;17.27;8.40;;;;;;;17.15;33.70;101023.44;125888;1099;104958;-78
2021/04/12 09:16:16;;;;;;;19.87;9.57;;;;;;;17.16;34.08;101011.98;125798;1099;104172;-78
2021/04/12 09:19:10;;;;;;;18.00;8.67;;;;;;;17.21;34.00;101006.75;125848;1099;104265;-79
2021/04/12 09:22:05;;;;;;;20.32;9.80;;;;;;;17.29;33.77;100997.16;125863;1099;104214;-78
2021/04/12 09:24:47;;;;;;;20.70;9.10;;;;;;;17.45;33.98;101000.05;125645;1099;104263;-78
2021/04/12 09:27:41;;;;;;;20.30;9.07;;;;;;;17.54;32.86;100989.58;125746;1099;104239;-77
2021/04/12 09:30:33;;;;;;;20.80;9.73;;;;;;;17.52;33.19;100980.72;125756;1099;104200;-78
2021/04/12 09:33:30;;;;;;;19.80;9.60;;;;;;;17.52;33.43;100978.95;125785;1099;104354;-78
2021/04/12 09:36:12;;;;;;;18.03;9.10;;;;;;;17.59;31.81;100986.14;125203;1099;105474;-79
2021/04/12 09:39:14;;;;;;;18.57;9.37;;;;;;;17.60;32.09;100981.71;125137;1099;104248;-79
2021/04/12 09:42:15;;;;;;;18.43;8.43;;;;;;;17.64;32.73;100970.28;125666;1099;104192;-78
2021/04/12 09:45:12;;;;;;;16.55;8.40;;;;;;;17.72;32.38;100962.44;125700;1099;104776;-78
2021/04/12 09:48:06;;;;;;;17.17;8.40;;;;;;;17.69;30.96;100963.27;125284;1099;104194;-79
2021/04/12 09:50:58;;;;;;;20.23;8.53;;;;;;;17.68;31.58;100953.52;125818;1099;104162;-78
2021/04/12 09:54:06;;;;;;;19.95;8.90;;;;;;;17.73;31.42;100950.92;125663;1099;104153;-79
2021/04/12 09:57:26;;;;;;;18.50;8.50;;;;;;;17.69;31.40;100955.31;125555;1099;108628;-79
2021/04/12 10:00:11;;;;;;;20.37;8.87;;;;;;;17.68;30.90;100947.33;125741;1099;102173;-79
2021/04/12 10:03:15;;;;;;;17.40;8.57;;;;;;;17.73;30.99;100942.96;125559;1099;104236;-80
2021/04/12 10:06:14;;;;;;;19.43;8.80;;;;;;;17.79;31.25;100937.73;125681;1099;104162;-80
2021/04/12 10:08:58;;;;;;;20.37;9.00;;;;;;;17.84;30.79;100935.14;125646;1099;105653;-80
2021/04/12 10:11:40;;;;;;;17.13;8.40;;;;;;;17.88;30.91;100924.62;124903;1099;104166;-80
2021/04/12 10:14:18;;;;;;;19.00;9.05;;;;;;;17.87;30.36;100930.78;124836;1102;104309;-79
2021/04/12 10:16:57;;;;;;;19.67;9.13;;;;;;;17.87;30.20;100925.48;124885;1100;104239;-81
2021/04/12 10:19:35;;;;;;;17.57;8.20;;;;;;;17.89;30.26;100926.41;124877;1102;104351;-80
2021/04/12 10:22:10;;;;;;;18.33;7.90;;;;;;;17.92;30.24;100918.48;124838;1102;104358;-80
2021/04/12 10:24:51;;;;;;;18.43;8.10;;;;;;;17.99;30.12;100915.91;124896;1102;104355;-80
2021/04/12 10:27:32;;;;;;;15.93;7.70;;;;;;;18.03;29.91;100921.27;124837;1102;104173;-80
2021/04/12 10:30:10;;;;;;;15.97;8.03;;;;;;;18.05;30.03;100916.86;125043;1102;104418;-80
2021/04/12 10:32:48;;;;;;;14.77;7.10;;;;;;;18.06;28.76;100905.38;125008;1102;104179;-80
2021/04/12 10:35:23;;;;;;;17.27;8.67;;;;;;;18.06;29.12;100901.80;124938;1102;104178;-80
2021/04/12 10:38:05;;;;;;;18.17;8.93;;;;;;;18.09;29.32;100913.38;125054;1102;107845;-80
2021/04/12 10:40:44;;;;;;;18.07;8.73;;;;;;;18.13;29.36;100901.02;125005;1102;104395;-80
2021/04/12 10:43:26;;;;;;;18.03;8.37;;;;;;;18.19;29.22;100893.11;124943;1100;104466;-80
2021/04/12 10:46:03;;;;;;;20.63;8.27;;;;;;;18.25;28.55;100889.64;125063;1102;104165;-81
2021/04/12 10:48:42;;;;;;;18.27;8.27;;;;;;;18.27;27.49;100894.08;125019;1102;104305;-80
2021/04/12 10:51:31;;;;;;;17.20;8.60;;;;;;;18.31;27.54;100887.93;125018;1101;104223;-79
2021/04/12 10:54:26;;;;;;;18.83;9.07;;;;;;;18.37;28.16;100883.55;125050;1102;105272;-81
2021/04/12 10:57:04;;;;;;;16.90;7.97;;;;;;;18.47;28.47;100886.30;124968;1102;104482;-77
2021/04/12 10:59:58;;;;;;;15.37;7.43;;;;;;;18.59;28.46;100887.28;125014;1100;104162;-79
2021/04/12 11:02:49;;;;;;;19.33;8.73;;;;;;;18.68;27.88;100879.39;125016;1102;104299;-78
2021/04/12 11:05:26;;;;;;;17.27;8.33;;;;;;;18.82;28.25;100871.53;124958;1102;103347;-79
2021/04/12 11:08:07;;;;;;;16.73;7.67;;;;;;;19.02;27.91;100885.89;125343;1100;102032;-80
2021/04/12 11:10:54;;;;;;;16.70;8.10;;;;;;;19.10;27.83;100874.44;125888;1099;104297;-79
2021/04/12 11:13:35;;;;;;;17.23;7.53;;;;;;;19.17;27.87;100868.28;125230;1099;104239;-80
2021/04/12 11:16:12;;;;;;;14.37;6.80;;;;;;;19.18;27.87;100862.06;125078;1099;104262;-79
2021/04/12 11:19:07;;;;;;;16.70;7.70;;;;;;;19.20;26.17;100865.64;125751;1099;109187;-78
2021/04/12 11:21:44;;;;;;;15.30;8.30;;;;;;;19.11;27.54;100863.80;125919;1099;104297;-78
2021/04/12 11:24:32;;;;;;;15.90;7.27;;;;;;;19.11;26.46;100869.12;125836;1099;104239;-80
2021/04/12 11:27:39;;;;;;;17.23;7.70;;;;;;;19.15;27.03;100859.38;125757;1099;104175;-79
2021/04/12 11:30:19;;;;;;;15.53;7.50;;;;;;;19.26;27.16;100851.47;125757;1099;104227;-78
2021/04/12 11:32:57;;;;;;;17.07;7.77;;;;;;;19.34;26.80;100849.76;125801;1099;104194;-79
2021/04/12 11:35:40;;;;;;;17.33;8.73;;;;;;;19.29;26.43;100833.77;125775;1099;104293;-77
2021/04/12 11:38:15;;;;;;;17.30;8.13;;;;;;;19.35;26.97;100851.52;125682;1099;104220;-79
2021/04/12 11:40:53;;;;;;;17.83;8.17;;;;;;;19.37;26.96;100837.35;125905;1099;104770;-77
2021/04/12 11:43:28;;;;;;;15.97;8.23;;;;;;;19.44;27.15;100832.06;125754;1099;104217;-77
2021/04/12 11:46:08;;;;;;;17.73;7.70;;;;;;;19.46;26.56;100831.20;125469;1099;104267;-77
2021/04/12 11:48:49;;;;;;;15.50;7.80;;;;;;;19.46;26.57;100830.28;125715;1099;104169;-78
2021/04/12 11:51:30;;;;;;;17.90;8.17;;;;;;;19.43;26.37;100825.86;125908;1099;104277;-79
2021/04/12 11:54:02;;;;;;;19.00;8.20;;;;;;;19.40;25.90;100823.19;125839;1099;104124;-78
2021/04/12 11:56:42;;;;;;;16.97;8.23;;;;;;;19.43;26.13;100812.55;125941;1099;104174;-78
2021/04/12 11:59:19;;;;;;;18.27;7.93;;;;;;;19.54;26.86;100809.91;125930;1099;104431;-79
2021/04/12 12:01:54;;;;;;;14.90;7.33;;;;;;;19.63;26.44;100809.94;126048;1099;104176;-77
2021/04/12 12:04:40;;;;;;;15.40;7.43;;;;;;;19.68;26.15;100804.62;125951;1099;104188;-78
2021/04/12 12:07:30;;;;;;;15.53;7.60;;;;;;;19.75;26.55;100799.33;126007;1099;104654;-80
2021/04/12 12:10:11;;;;;;;19.70;8.17;;;;;;;19.83;26.43;100806.50;126046;1099;117842;-79
2021/04/12 12:12:52;;;;;;;17.30;7.60;;;;;;;19.90;25.85;100795.86;125214;1099;104380;-78
2021/04/12 12:15:30;;;;;;;15.57;7.67;;;;;;;19.96;25.83;100795.00;125861;1099;104169;-79
2021/04/12 12:18:06;;;;;;;16.57;7.23;;;;;;;20.11;25.33;100792.33;125986;1099;104145;-78
2021/04/12 12:20:50;;;;;;;17.87;7.90;;;;;;;20.28;25.86;100788.80;125842;1098;104179;-78
2021/04/12 12:23:38;;;;;;;16.50;7.90;;;;;;;20.40;25.79;100793.26;125969;1099;104640;-78
2021/04/12 12:26:18;;;;;;;17.70;7.80;;;;;;;20.55;26.05;100792.34;125967;1099;104280;-78
2021/04/12 12:28:56;;;;;;;16.87;7.33;;;;;;;20.72;25.22;100785.23;125734;1099;104144;-77
2021/04/12 12:31:37;;;;;;;17.60;7.77;;;;;;;20.78;25.57;100779.02;125958;1099;103284;-77
2021/04/12 12:34:27;;;;;;;17.20;7.57;;;;;;;20.88;24.82;100774.55;125888;1099;104178;-78
2021/04/12 12:37:04;;;;;;;18.13;7.53;;;;;;;21.06;24.72;100774.50;125831;1099;104242;-78
2021/04/12 12:39:37;;;;;;;17.40;7.60;;;;;;;21.11;24.86;100766.48;125834;1099;104232;-79
2021/04/12 12:42:14;;;;;;;16.73;7.67;;;;;;;21.14;24.81;100764.67;125931;1099;104207;-78
2021/04/12 12:44:44;;;;;;;14.50;7.30;;;;;;;21.11;24.51;100766.48;126050;1099;104140;-78
2021/04/12 12:47:17;;;;;;;14.70;7.70;;;;;;;20.95;23.39;100770.98;126092;1099;104655;-77